Time;durP1;ratioP1;P1;durP2;ratioP2;P2;SDS_P1;SDS_P2;PMS_P1;PMS_P2;Temp;Humidity;BMP_temperature;BMP_pressure;BME280_temperature;BME280_humidity;BME280_pressure;Samples;Min_cycle;Max_cycle;Signal;HPM_P1;HPM_P2
2023/08/23 15:48:48;;;;;;;3.80;2.00;;;;;;;;;;5045498;28;20371;-43
2023/08/23 15:51:16;;;;;;;3.17;2.07;;;;;;;;;;5042433;28;20211;-43
2023/08/23 15:53:43;;;;;;;4.97;2.60;;;;;;;;;;5041629;28;73435;-45
2023/08/23 17:29:48;;;;;;;4.33;2.00;;;24.80;99.90;;;;;;5052756;28;20577;-67
2023/08/23 17:32:13;;;;;;;5.47;2.25;;;25.00;99.90;;;;;;5014534;28;73389;-67
2023/08/23 17:34:41;;;;;;;3.60;2.00;;;24.90;99.90;;;;;;5013531;28;20191;-67
2023/08/23 17:37:06;;;;;;;3.50;2.03;;;24.80;99.90;;;;;;5018727;28;20220;-67
2023/08/23 17:39:32;;;;;;;5.07;1.97;;;24.60;99.90;;;;;;5018787;28;20234;-66
2023/08/23 17:41:57;;;;;;;6.37;1.97;;;24.70;99.90;;;;;;5018725;28;20191;-66
2023/08/23 17:44:23;;;;;;;3.43;1.97;;;24.60;99.90;;;;;;5019526;28;20231;-67
2023/08/23 17:46:49;;;;;;;5.30;2.60;;;24.50;99.90;;;;;;5012628;28;20266;-67
2023/08/23 17:49:14;;;;;;;6.97;2.10;;;24.50;99.90;;;;;;5015040;28;20215;-67
2023/08/23 17:51:40;;;;;;;2.83;2.00;;;24.30;99.90;;;;;;5024879;28;20563;-68
2023/08/23 17:54:07;;;;;;;4.97;1.90;;;24.20;99.90;;;;;;5016892;28;20211;-67
2023/08/23 17:56:33;;;;;;;5.20;2.20;;;24.10;99.90;;;;;;5013782;28;20250;-67
2023/08/23 17:58:59;;;;;;;6.00;2.20;;;23.90;99.90;;;;;;5014292;28;20625;-67
2023/08/23 18:01:25;;;;;;;4.57;1.90;;;23.80;99.90;;;;;;5022510;28;20176;-67
2023/08/23 18:03:50;;;;;;;6.27;1.87;;;23.80;99.90;;;;;;5021457;28;20195;-67
2023/08/23 18:06:16;;;;;;;5.07;2.37;;;23.70;99.90;;;;;;5022966;28;20242;-67
2023/08/23 18:08:42;;;;;;;3.00;2.17;;;23.50;99.90;;;;;;5023241;28;20222;-67
2023/08/23 18:11:08;;;;;;;5.90;2.10;;;23.60;99.90;;;;;;5025285;28;20209;-67
2023/08/23 18:13:34;;;;;;;3.53;1.90;;;23.60;99.90;;;;;;5015227;28;20186;-67
2023/08/23 18:16:00;;;;;;;5.83;2.30;;;23.50;99.90;;;;;;5017743;28;20192;-67
2023/08/23 18:18:25;;;;;;;6.97;2.60;;;23.30;99.90;;;;;;5022017;28;20238;-67
2023/08/23 18:20:51;;;;;;;7.03;2.30;;;23.10;99.90;;;;;;5024754;28;20198;-67
2023/08/23 18:23:16;;;;;;;6.27;2.13;;;22.90;99.90;;;;;;5021451;28;20201;-67
2023/08/23 18:25:42;;;;;;;4.90;2.33;;;22.90;99.90;;;;;;5016450;28;20224;-69
2023/08/23 18:28:07;;;;;;;3.03;2.10;;;22.70;99.90;;;;;;5017099;28;20218;-66
2023/08/23 18:30:38;;;;;;;14.00;3.80;;;22.70;99.90;;;;;;5025605;28;20178;-65
2023/08/23 18:33:04;;;;;;;4.53;2.70;;;22.60;99.90;;;;;;5022497;28;20221;-66
2023/08/23 18:35:30;;;;;;;5.17;2.80;;;22.50;99.90;;;;;;5013434;28;20182;-66
2023/08/23 18:37:56;;;;;;;6.30;2.63;;;22.40;99.90;;;;;;5011881;28;20224;-65
2023/08/23 18:40:23;;;;;;;5.40;2.60;;;22.40;99.90;;;;;;5017584;28;20190;-66
2023/08/23 18:42:48;;;;;;;7.07;2.23;;;22.20;99.90;;;;;;5005954;28;20528;-66
2023/08/23 18:45:18;;;;;;;6.50;2.40;;;22.00;99.90;;;;;;5006689;28;20243;-66
2023/08/23 18:47:44;;;;;;;8.30;2.50;;;22.00;99.90;;;;;;5000992;28;20218;-67
2023/08/23 18:50:10;;;;;;;5.73;2.47;;;21.90;99.90;;;;;;5006073;28;20193;-67
2023/08/23 18:52:35;;;;;;;6.27;2.73;;;21.70;99.90;;;;;;5006768;28;20192;-67
2023/08/23 18:55:01;;;;;;;7.43;2.30;;;21.60;99.90;;;;;;5011526;28;20190;-67
2023/08/23 18:57:26;;;;;;;3.87;2.50;;;21.50;99.90;;;;;;5003081;28;20236;-66
2023/08/23 18:59:52;;;;;;;7.57;2.67;;;21.50;99.90;;;;;;5006663;28;20208;-66
2023/08/23 19:02:18;;;;;;;3.43;2.10;;;21.30;99.90;;;;;;5005088;28;20639;-65
2023/08/23 19:04:43;;;;;;;4.40;2.73;;;21.30;99.90;;;;;;5008566;28;20240;-65
2023/08/23 19:07:09;;;;;;;3.83;2.40;;;21.30;99.90;;;;;;5006858;28;20182;-65
2023/08/23 19:09:34;;;;;;;4.50;2.60;;;21.20;99.90;;;;;;5007636;28;20237;-66
2023/08/23 19:12:00;;;;;;;5.47;2.43;;;21.20;99.90;;;;;;4997804;28;20254;-66
2023/08/23 19:14:26;;;;;;;8.30;2.57;;;21.00;99.90;;;;;;5004502;28;20629;-66
2023/08/23 19:16:51;;;;;;;6.03;2.80;;;21.00;99.90;;;;;;5009916;28;20180;-66
2023/08/23 19:19:17;;;;;;;4.60;2.80;;;20.90;99.90;;;;;;5009120;28;20211;-66
2023/08/23 19:21:42;;;;;;;6.97;3.30;;;20.80;99.90;;;;;;5012835;28;20180;-66
2023/08/23 19:24:08;;;;;;;5.13;3.10;;;20.80;99.90;;;;;;5010818;28;20608;-66
2023/08/23 19:26:34;;;;;;;4.40;2.73;;;20.70;99.90;;;;;;5000451;28;20600;-66
2023/08/23 19:29:02;;;;;;;4.07;2.70;;;20.60;99.90;;;;;;5000634;28;20266;-66
2023/08/23 19:31:34;;;;;;;6.20;2.97;;;20.60;99.90;;;;;;5001665;28;20639;-66
2023/08/23 19:34:00;;;;;;;6.50;2.87;;;20.50;99.90;;;;;;5003947;28;20676;-66
2023/08/23 19:36:26;;;;;;;4.73;2.53;;;20.50;99.90;;;;;;5010426;28;20185;-66
2023/08/23 19:38:51;;;;;;;6.43;3.40;;;20.50;99.90;;;;;;5004572;28;20908;-66
2023/08/23 19:41:17;;;;;;;4.07;2.83;;;20.40;99.90;;;;;;5004619;28;20223;-66
2023/08/23 19:43:43;;;;;;;8.33;3.27;;;20.30;99.90;;;;;;4999606;28;20189;-66
2023/08/23 19:46:08;;;;;;;5.90;3.00;;;20.30;99.90;;;;;;5001107;28;20753;-66
2023/08/23 19:48:34;;;;;;;6.87;3.20;;;20.20;99.90;;;;;;5007204;28;20211;-66
2023/08/23 19:51:03;;;;;;;5.93;3.00;;;20.20;99.90;;;;;;4999049;28;20541;-66
2023/08/23 19:53:29;;;;;;;5.50;2.83;;;20.10;99.90;;;;;;4999857;28;20623;-65
2023/08/23 19:56:05;;;;;;;7.30;3.40;;;20.00;99.90;;;;;;5006423;28;20218;-65
2023/08/23 19:58:34;;;;;;;6.93;3.20;;;20.00;99.90;;;;;;5011622;28;20192;-66
2023/08/23 20:01:01;;;;;;;11.83;3.53;;;19.90;99.90;;;;;;5012299;28;20184;-66
2023/08/23 20:03:27;;;;;;;7.37;3.27;;;19.90;99.90;;;;;;5012226;28;20176;-67
2023/08/23 20:05:53;;;;;;;6.57;3.13;;;19.90;99.90;;;;;;5012241;28;20220;-67
2023/08/23 20:08:18;;;;;;;8.67;3.17;;;19.80;99.90;;;;;;5025348;28;20247;-66
2023/08/23 20:10:44;;;;;;;9.87;4.30;;;19.80;99.90;;;;;;5012089;28;20685;-67
2023/08/23 20:13:10;;;;;;;6.33;3.27;;;19.70;99.90;;;;;;5012154;28;20165;-67
2023/08/23 20:15:35;;;;;;;5.30;2.90;;;19.60;99.90;;;;;;5012372;28;20259;-67
2023/08/23 20:18:01;;;;;;;9.37;3.37;;;19.50;99.90;;;;;;5011363;28;20267;-67
2023/08/23 20:20:26;;;;;;;10.20;3.43;;;19.50;99.90;;;;;;5012015;28;20219;-67
2023/08/23 20:22:52;;;;;;;7.43;3.53;;;19.50;99.90;;;;;;5011917;28;20176;-67
2023/08/23 20:25:18;;;;;;;6.13;3.50;;;19.40;99.90;;;;;;5012110;28;20184;-67
2023/08/23 20:27:43;;;;;;;8.47;3.57;;;19.30;99.90;;;;;;5010915;28;20200;-67
2023/08/23 20:30:09;;;;;;;7.63;3.20;;;19.20;99.90;;;;;;5011975;28;20200;-66
2023/08/23 20:32:35;;;;;;;6.60;3.50;;;19.30;99.90;;;;;;5011683;28;20517;-67
2023/08/23 20:35:01;;;;;;;10.50;3.67;;;19.20;99.90;;;;;;5011745;28;20234;-66
2023/08/23 20:37:26;;;;;;;9.40;3.63;;;19.20;99.90;;;;;;5011247;28;20642;-66
2023/08/23 20:39:52;;;;;;;6.70;3.53;;;19.00;99.90;;;;;;5011404;28;20200;-66
2023/08/23 20:42:17;;;;;;;7.60;3.70;;;18.90;99.90;;;;;;5011639;28;20204;-66
2023/08/23 20:44:44;;;;;;;6.17;3.70;;;18.90;99.90;;;;;;5011597;28;20181;-66
2023/08/23 20:47:09;;;;;;;6.77;3.90;;;18.80;99.90;;;;;;5010985;28;20175;-66
2023/08/23 20:49:35;;;;;;;4.70;3.70;;;18.80;99.90;;;;;;5026443;28;20209;-66
2023/08/23 20:52:04;;;;;;;14.47;4.50;;;18.80;99.90;;;;;;5026533;28;20267;-66
2023/08/23 20:54:30;;;;;;;9.23;3.80;;;18.70;99.90;;;;;;5011124;28;20173;-66
2023/08/23 20:56:56;;;;;;;8.57;4.00;;;18.70;99.90;;;;;;4996281;28;20201;-66
2023/08/23 20:59:22;;;;;;;9.00;3.90;;;18.80;99.90;;;;;;4991776;28;20197;-66
2023/08/23 21:01:48;;;;;;;5.30;3.77;;;18.70;99.90;;;;;;5006757;28;20546;-66
2023/08/23 21:04:14;;;;;;;10.80;4.30;;;18.60;99.90;;;;;;4991670;28;20185;-66
2023/08/23 21:06:40;;;;;;;7.37;4.27;;;18.60;99.90;;;;;;4991654;28;20639;-66
2023/08/23 21:09:05;;;;;;;8.10;4.57;;;18.50;99.90;;;;;;4990661;28;20240;-66
2023/08/23 21:11:31;;;;;;;7.20;4.50;;;18.50;99.90;;;;;;4991616;28;20188;-66
2023/08/23 21:13:58;;;;;;;10.97;4.30;;;18.50;99.90;;;;;;4991704;28;20177;-66
2023/08/23 21:16:24;;;;;;;8.83;4.30;;;18.50;99.90;;;;;;4991570;28;20219;-66
2023/08/23 21:18:50;;;;;;;10.07;4.20;;;18.50;99.90;;;;;;4990761;28;20591;-66
2023/08/23 21:21:15;;;;;;;11.80;5.03;;;18.50;99.90;;;;;;4991579;28;20661;-66
2023/08/23 21:23:42;;;;;;;12.10;4.20;;;18.50;99.90;;;;;;4991328;28;20677;-66
2023/08/23 21:26:07;;;;;;;11.37;4.07;;;18.50;99.90;;;;;;4991415;28;20193;-66
2023/08/23 21:28:33;;;;;;;5.67;3.93;;;18.50;99.90;;;;;;4989369;28;20252;-66
2023/08/23 21:31:01;;;;;;;10.07;4.37;;;18.50;99.90;;;;;;4991451;28;20181;-66
2023/08/23 21:33:28;;;;;;;7.80;4.20;;;18.40;99.90;;;;;;4989900;28;20208;-66
2023/08/23 21:35:53;;;;;;;7.73;3.50;;;18.30;99.90;;;;;;4991703;28;20165;-66
2023/08/23 21:38:19;;;;;;;7.83;3.60;;;18.30;99.90;;;;;;4990565;28;20192;-66
2023/08/23 21:40:45;;;;;;;7.07;4.03;;;18.30;99.90;;;;;;4991166;28;20193;-66
2023/08/23 21:43:10;;;;;;;7.30;3.97;;;18.30;99.90;;;;;;4989682;28;20215;-66
2023/08/23 21:45:39;;;;;;;5.73;4.27;;;18.20;99.90;;;;;;4991283;28;20189;-66
2023/08/23 21:48:05;;;;;;;6.50;4.23;;;18.20;99.90;;;;;;4990314;28;20205;-66
2023/08/23 21:50:34;;;;;;;9.80;3.63;;;18.20;99.90;;;;;;4991240;28;20185;-66
2023/08/23 21:52:59;;;;;;;10.17;3.93;;;18.20;99.90;;;;;;4991138;28;20219;-66
2023/08/23 21:55:25;;;;;;;7.73;4.33;;;18.10;99.90;;;;;;4991176;28;20264;-66
2023/08/23 21:57:50;;;;;;;9.77;4.00;;;18.00;99.90;;;;;;4990500;28;20231;-66
2023/08/23 22:00:17;;;;;;;8.30;4.17;;;17.90;99.90;;;;;;4991167;28;20553;-66
2023/08/23 22:02:42;;;;;;;11.20;4.00;;;17.90;99.90;;;;;;4990970;28;20196;-66
2023/08/23 22:05:08;;;;;;;9.03;3.83;;;17.90;99.90;;;;;;4991037;28;20264;-66
2023/08/23 22:07:35;;;;;;;8.40;3.93;;;17.90;99.90;;;;;;4990255;28;20257;-66
2023/08/23 22:10:00;;;;;;;11.27;3.80;;;17.80;99.90;;;;;;4990946;28;20204;-66
2023/08/23 22:12:26;;;;;;;6.23;3.63;;;17.80;99.90;;;;;;4991109;28;20182;-66
2023/08/23 22:14:51;;;;;;;8.27;4.23;;;17.70;99.90;;;;;;4991845;28;20239;-66
2023/08/23 22:17:17;;;;;;;11.63;4.33;;;17.70;99.90;;;;;;4994194;28;20181;-66
2023/08/23 22:19:43;;;;;;;10.30;4.07;;;17.70;99.90;;;;;;4994453;28;20209;-66
2023/08/23 22:22:08;;;;;;;6.10;3.70;;;17.60;99.90;;;;;;4994568;28;20195;-66
2023/08/23 22:24:34;;;;;;;7.87;4.37;;;17.60;99.90;;;;;;4993488;28;20196;-66
2023/08/23 22:26:59;;;;;;;4.97;3.90;;;17.60;99.90;;;;;;4994192;28;20589;-66
2023/08/23 22:29:25;;;;;;;8.10;3.73;;;17.50;99.90;;;;;;5009598;28;20224;-66
2023/08/23 22:31:50;;;;;;;7.73;4.10;;;17.40;99.90;;;;;;4994637;28;20232;-66
2023/08/23 22:34:16;;;;;;;6.00;3.87;;;17.30;99.90;;;;;;4994331;28;20193;-66
2023/08/23 22:36:41;;;;;;;7.50;4.57;;;17.30;99.90;;;;;;4994220;28;20235;-66
2023/08/23 22:39:07;;;;;;;7.57;4.20;;;17.30;99.90;;;;;;4993965;28;20209;-66
2023/08/23 22:41:33;;;;;;;6.70;3.90;;;17.30;99.90;;;;;;4994254;28;20186;-66
2023/08/23 22:43:58;;;;;;;10.43;4.10;;;17.30;99.90;;;;;;4992663;28;20658;-66
2023/08/23 22:46:24;;;;;;;13.17;4.80;;;17.20;99.90;;;;;;4993602;28;20420;-66
2023/08/23 22:48:50;;;;;;;8.63;4.10;;;17.20;99.90;;;;;;4993166;28;20212;-67
2023/08/23 22:51:15;;;;;;;7.17;3.77;;;17.20;99.90;;;;;;4994029;28;20209;-67
2023/08/23 22:53:42;;;;;;;7.73;4.10;;;17.20;99.90;;;;;;4993929;28;20185;-66
2023/08/23 22:56:09;;;;;;;8.37;4.17;;;17.30;99.90;;;;;;4993961;28;20173;-67
2023/08/23 22:58:35;;;;;;;7.10;4.23;;;17.30;99.90;;;;;;4993183;28;20580;-67
2023/08/23 23:01:00;;;;;;;8.13;4.00;;;17.30;99.90;;;;;;4994074;28;20185;-67
2023/08/23 23:03:26;;;;;;;7.60;3.87;;;17.10;99.90;;;;;;4993766;28;20653;-66
2023/08/23 23:05:53;;;;;;;11.73;4.20;;;17.10;99.90;;;;;;4993717;28;20181;-67
2023/08/23 23:08:18;;;;;;;6.97;4.37;;;17.00;99.90;;;;;;4992940;28;20209;-67
2023/08/23 23:10:50;;;;;;;7.70;4.37;;;17.00;99.90;;;;;;4993769;28;20196;-67
2023/08/23 23:13:25;;;;;;;5.03;3.80;;;16.80;99.90;;;;;;4993701;28;20161;-67
2023/08/23 23:15:50;;;;;;;5.87;3.83;;;16.80;99.90;;;;;;4993670;28;20196;-67
2023/08/23 23:18:16;;;;;;;6.30;4.23;;;16.80;99.90;;;;;;4992697;28;20209;-67
2023/08/23 23:20:42;;;;;;;7.97;4.43;;;16.70;99.90;;;;;;4993729;28;20272;-67
2023/08/23 23:23:08;;;;;;;10.47;4.40;;;16.60;99.90;;;;;;4993377;28;20195;-67
2023/08/23 23:25:34;;;;;;;9.23;4.30;;;16.50;99.90;;;;;;4993280;28;20194;-67
2023/08/23 23:28:00;;;;;;;11.30;4.77;;;16.50;99.90;;;;;;4992350;28;20304;-67
2023/08/23 23:30:25;;;;;;;7.07;4.37;;;16.40;99.90;;;;;;4993380;28;20185;-67
2023/08/23 23:32:52;;;;;;;5.60;4.37;;;16.40;99.90;;;;;;4993352;28;20192;-67
2023/08/23 23:35:18;;;;;;;7.33;4.30;;;16.40;99.90;;;;;;4993261;28;20177;-66
2023/08/23 23:37:43;;;;;;;6.63;4.17;;;16.30;99.90;;;;;;4992711;28;20189;-66
2023/08/23 23:40:10;;;;;;;7.93;4.53;;;16.30;99.90;;;;;;4993312;28;20584;-67
2023/08/23 23:42:36;;;;;;;6.97;4.43;;;16.20;99.90;;;;;;4993103;28;20708;-67
2023/08/23 23:45:03;;;;;;;7.60;4.30;;;16.30;99.90;;;;;;4992958;28;20264;-67
2023/08/23 23:47:28;;;;;;;6.67;4.40;;;16.20;99.90;;;;;;4992269;28;20259;-67
2023/08/23 23:49:54;;;;;;;8.70;4.70;;;16.10;99.90;;;;;;4992682;28;20249;-67
2023/08/23 23:52:20;;;;;;;7.40;4.07;;;16.20;99.90;;;;;;4992837;28;20188;-67
2023/08/23 23:54:45;;;;;;;6.17;4.40;;;16.10;99.90;;;;;;4992897;28;20173;-67
2023/08/23 23:57:11;;;;;;;5.43;3.97;;;16.10;99.90;;;;;;4992195;28;20181;-66
2023/08/23 23:59:36;;;;;;;9.57;4.40;;;16.10;99.90;;;;;;4992677;28;20237;-67
